Time;durP1;ratioP1;P1;durP2;ratioP2;P2;SDS_P1;SDS_P2;PMS_P1;PMS_P2;Temp;Humidity;BMP_temperature;BMP_pressure;BME280_temperature;BME280_humidity;BME280_pressure;Samples;Min_cycle;Max_cycle;Signal;HPM_P1;HPM_P2
2022/07/04 00:00:05;;;;;;;3.05;2.50;;;;;;;12.85;82.79;101875.78;6195120;23;20016;-87
2022/07/04 00:02:31;;;;;;;5.28;2.30;;;;;;;12.82;82.78;101877.00;6220824;23;20015;-87
2022/07/04 00:04:56;;;;;;;10.43;2.70;;;;;;;12.75;82.55;101867.16;6220620;23;20008;-87
2022/07/04 00:07:22;;;;;;;4.40;2.40;;;;;;;12.72;82.72;101868.38;6194660;23;20465;-87
2022/07/04 00:09:47;;;;;;;4.67;2.23;;;;;;;12.71;83.20;101860.44;6220440;23;20089;-87
2022/07/04 00:12:12;;;;;;;10.68;2.60;;;;;;;12.66;82.95;101862.94;6194939;23;20434;-87
2022/07/04 00:14:38;;;;;;;4.57;2.40;;;;;;;12.65;83.14;101864.81;6194653;23;20506;-87
2022/07/04 00:17:04;;;;;;;7.47;2.17;;;;;;;12.65;83.16;101864.81;6219909;23;20012;-87
2022/07/04 00:19:29;;;;;;;5.90;2.35;;;;;;;12.64;82.92;101860.41;6194859;23;20012;-87
2022/07/04 00:21:55;;;;;;;9.07;2.83;;;;;;;12.56;83.41;101863.31;6194383;23;20043;-87
2022/07/04 00:24:23;;;;;;;5.13;2.30;;;;;;;12.50;83.58;101859.53;6195107;23;20004;-87
2022/07/04 00:26:48;;;;;;;4.05;2.72;;;;;;;12.45;83.77;101860.13;6194746;23;20008;-87
2022/07/04 00:29:14;;;;;;;6.03;2.80;;;;;;;12.43;84.34;101854.06;6194388;23;20440;-87
2022/07/04 00:31:40;;;;;;;2.90;2.53;;;;;;;12.42;84.55;101857.81;6194767;23;20012;-87
2022/07/04 00:34:05;;;;;;;6.77;2.57;;;;;;;12.40;84.15;101864.50;6218998;23;20111;-87
2022/07/04 00:36:31;;;;;;;4.47;3.00;;;;;;;12.36;83.89;101863.25;6195688;23;20008;-87
2022/07/04 00:38:56;;;;;;;5.00;2.67;;;;;;;12.28;83.83;101859.66;6220505;23;20020;-88
2022/07/04 00:41:22;;;;;;;6.10;3.03;;;;;;;12.23;84.13;101864.84;6195039;23;20026;-87
2022/07/04 00:44:02;;;;;;;5.43;3.20;;;;;;;12.22;84.45;101865.91;6219574;23;20012;-87
2022/07/04 00:46:27;;;;;;;6.10;2.67;;;;;;;12.20;84.29;101858.97;6194629;23;20015;-87
2022/07/04 00:48:53;;;;;;;3.88;2.60;;;;;;;12.17;83.93;101857.50;6219883;23;20012;-87
2022/07/04 00:51:18;;;;;;;7.00;3.40;;;;;;;12.11;84.06;101863.75;6219786;23;20334;-87
2022/07/04 00:53:45;;;;;;;5.83;2.60;;;;;;;12.14;85.21;101867.97;6219776;23;20449;-87
2022/07/04 00:56:10;;;;;;;6.32;3.30;;;;;;;12.13;85.27;101867.09;6246753;23;20079;-87
2022/07/04 00:58:37;;;;;;;7.50;2.63;;;;;;;12.09;84.47;101860.38;6194632;23;20038;-86
2022/07/04 01:01:02;;;;;;;5.57;2.97;;;;;;;12.05;84.59;101856.41;6169854;23;20020;-87
2022/07/04 01:03:28;;;;;;;6.33;2.60;;;;;;;12.06;84.74;101861.63;6195151;23;20367;-87
2022/07/04 01:05:54;;;;;;;6.20;3.13;;;;;;;12.04;84.71;101857.44;6194517;23;20016;-87
2022/07/04 01:08:19;;;;;;;7.78;2.53;;;;;;;12.01;84.62;101849.66;6194412;23;20427;-87
2022/07/04 01:10:45;;;;;;;4.03;3.10;;;;;;;11.98;84.70;101855.50;6219445;23;20004;-87
2022/07/04 01:13:20;;;;;;;4.40;3.13;;;;;;;11.92;84.98;101843.53;6219670;23;20078;-87
2022/07/04 01:15:46;;;;;;;9.80;3.28;;;;;;;11.90;85.61;101853.78;6246382;23;20000;-87
2022/07/04 01:18:11;;;;;;;7.63;3.20;;;;;;;11.90;86.33;101849.16;6219201;23;20111;-87
2022/07/04 01:20:37;;;;;;;6.73;2.70;;;;;;;11.90;86.24;101842.88;6219138;23;20008;-87
2022/07/04 01:23:03;;;;;;;5.25;3.17;;;;;;;11.91;86.48;101844.53;6219979;23;20134;-87
2022/07/04 01:25:28;;;;;;;7.17;2.87;;;;;;;11.80;85.46;101829.63;6219293;23;20012;-87
2022/07/04 01:27:53;;;;;;;4.73;3.00;;;;;;;11.82;87.02;101843.88;6219554;23;20406;-87
2022/07/04 01:30:19;;;;;;;6.38;3.45;;;;;;;11.76;86.28;101826.47;6219719;23;20087;-87
2022/07/04 01:32:44;;;;;;;5.87;3.20;;;;;;;11.77;86.95;101830.88;6246836;23;20032;-87
2022/07/04 01:35:10;;;;;;;5.20;3.30;;;;;;;11.76;87.35;101822.91;6194161;23;20430;-87
2022/07/04 01:37:36;;;;;;;3.88;3.08;;;;;;;11.77;86.75;101839.03;6219495;23;20099;-87
2022/07/04 01:40:04;;;;;;;7.40;3.08;;;;;;;11.74;87.43;101834.00;6246379;23;20355;-87
2022/07/04 01:42:30;;;;;;;7.50;3.42;;;;;;;11.71;86.61;101826.22;6218968;23;20074;-87
2022/07/04 01:44:55;;;;;;;6.23;3.33;;;;;;;11.72;87.44;101827.06;6195849;23;20012;-87
2022/07/04 01:47:20;;;;;;;4.63;3.00;;;;;;;11.70;87.08;101815.56;6196354;23;20338;-87
2022/07/04 01:49:46;;;;;;;5.60;3.67;;;;;;;11.67;87.17;101816.78;6196313;23;20510;-87
2022/07/04 01:52:11;;;;;;;6.57;3.23;;;;;;;11.68;87.20;101813.03;6221048;23;20115;-87
2022/07/04 01:54:37;;;;;;;6.43;3.22;;;;;;;11.64;87.21;101806.31;6221169;23;20008;-87
2022/07/04 01:57:03;;;;;;;6.43;3.20;;;;;;;11.62;86.57;101811.13;6220890;23;20380;-87
2022/07/04 02:02:26;;;;;;;4.07;3.15;;;;;;;11.56;87.37;101811.94;5056142;28;20067;-84
2022/07/04 02:04:51;;;;;;;4.10;3.67;;;;;;;11.54;87.25;101806.66;5036610;28;20457;-84
2022/07/04 02:07:17;;;;;;;7.00;3.70;;;;;;;11.57;87.76;101808.16;5053310;28;20036;-84
2022/07/04 02:09:43;;;;;;;4.78;3.25;;;;;;;11.54;87.23;101808.56;5069873;28;20103;-84
2022/07/04 02:14:52;;;;;;;7.00;3.33;;;;;;;11.49;87.33;101808.31;5070979;28;20086;-84
2022/07/04 02:17:21;;;;;;;6.73;3.00;;;;;;;11.44;86.88;101802.63;5069352;28;20041;-84
2022/07/04 02:19:47;;;;;;;4.85;3.25;;;;;;;11.40;87.18;101799.47;5069592;28;20395;-84
2022/07/04 02:22:14;;;;;;;9.25;3.53;;;;;;;11.37;87.59;101806.13;5070876;28;20029;-84
2022/07/04 02:24:39;;;;;;;6.63;3.60;;;;;;;11.31;87.79;101801.50;5069524;28;20036;-84
2022/07/04 02:27:05;;;;;;;8.73;3.73;;;;;;;11.24;87.35;101809.56;5069336;28;20412;-84
2022/07/04 02:29:30;;;;;;;7.90;3.47;;;;;;;11.22;87.85;101821.69;5070321;28;20101;-84
2022/07/04 02:31:55;;;;;;;8.30;3.75;;;;;;;11.25;89.96;101818.59;5035634;28;20035;-84
2022/07/04 02:34:21;;;;;;;7.27;3.20;;;;;;;11.26;89.54;101822.97;5052648;28;20028;-84
2022/07/04 02:36:47;;;;;;;5.50;3.70;;;;;;;11.28;90.59;101831.78;5052535;28;20033;-84
2022/07/04 02:39:13;;;;;;;7.30;3.63;;;;;;;11.27;89.59;101821.94;5069957;28;20043;-84
2022/07/04 02:41:38;;;;;;;6.57;4.07;;;;;;;11.27;90.17;101834.69;5052563;28;20523;-84
2022/07/04 02:44:04;;;;;;;10.52;3.70;;;;;;;11.24;90.20;101828.59;5085931;28;20025;-84
2022/07/04 02:46:32;;;;;;;8.17;3.63;;;;;;;11.22;89.70;101827.97;5068556;28;20025;-84
2022/07/04 02:48:58;;;;;;;7.88;3.80;;;;;;;11.22;90.17;101825.25;5069236;28;20024;-84
2022/07/04 02:51:24;;;;;;;9.65;3.92;;;;;;;11.19;90.10;101817.50;5068863;28;20067;-84
2022/07/04 02:53:49;;;;;;;4.37;3.40;;;;;;;11.20;90.27;101819.16;5085670;28;20024;-84
2022/07/04 02:56:15;;;;;;;5.15;3.97;;;;;;;11.19;91.01;101819.34;5068716;28;20047;-86
2022/07/04 02:58:40;;;;;;;7.47;3.30;;;;;;;11.15;90.62;101824.34;5051705;28;20118;-87
2022/07/04 03:01:06;;;;;;;3.97;3.40;;;;;;;11.14;90.23;101829.97;5069938;28;20120;-87
2022/07/04 03:03:31;;;;;;;7.65;3.92;;;;;;;11.10;90.80;101825.97;5068276;28;20388;-87
2022/07/04 03:05:57;;;;;;;6.80;4.03;;;;;;;11.10;91.43;101824.09;5068923;28;20032;-87
2022/07/04 03:08:22;;;;;;;13.00;4.30;;;;;;;11.09;90.88;101832.41;5068727;28;20056;-87
2022/07/04 03:10:51;;;;;;;6.80;3.87;;;;;;;11.06;91.09;101839.94;5056680;28;20056;-87
2022/07/04 03:13:17;;;;;;;5.90;4.05;;;;;;;11.11;92.65;101842.06;5055427;28;20033;-87
2022/07/04 03:15:43;;;;;;;5.75;3.83;;;;;;;11.09;91.49;101841.44;5054691;28;20036;-87
2022/07/04 03:18:11;;;;;;;6.40;3.90;;;;;;;11.10;91.86;101851.25;5055992;28;20075;-86
2022/07/04 03:20:37;;;;;;;7.03;4.10;;;;;;;11.08;91.71;101855.19;5056370;28;20115;-87
2022/07/04 03:23:02;;;;;;;5.70;3.93;;;;;;;11.09;nan;101859.56;5038371;28;20485;-87
2022/07/04 03:25:28;;;;;;;7.97;4.53;;;;;;;11.09;92.71;101856.84;5071420;28;20029;-87
2022/07/04 03:27:53;;;;;;;6.97;3.97;;;;;;;11.09;92.87;101852.28;5054858;28;20071;-86
2022/07/04 03:30:19;;;;;;;6.53;4.03;;;;;;;11.14;93.03;101854.41;5038288;28;20040;-86
2022/07/04 03:32:44;;;;;;;8.53;4.30;;;;;;;11.16;92.82;101857.75;5038206;28;20121;-87
2022/07/04 03:35:10;;;;;;;9.05;3.90;;;;;;;11.21;92.61;101861.59;5038477;28;20025;-87
2022/07/04 03:37:35;;;;;;;6.97;4.00;;;;;;;11.20;92.40;101861.78;5021571;28;20464;-87
2022/07/04 03:40:00;;;;;;;8.20;3.80;;;;;;;11.19;93.22;101866.38;5054701;28;20032;-86
2022/07/04 03:42:26;;;;;;;6.73;4.13;;;;;;;11.23;93.06;101869.53;5037736;28;20041;-86
2022/07/04 03:44:52;;;;;;;11.15;4.10;;;;;;;11.22;92.97;101868.72;5055002;28;20040;-87
2022/07/04 03:47:17;;;;;;;10.50;4.38;;;;;;;11.23;92.45;101878.56;5054079;28;20517;-87
2022/07/04 03:49:43;;;;;;;8.07;4.10;;;;;;;11.26;92.70;101881.91;5054490;28;20053;-87
2022/07/04 03:52:08;;;;;;;8.33;3.90;;;;;;;11.27;92.72;101887.13;5054264;28;20035;-87
2022/07/04 03:54:34;;;;;;;5.83;4.20;;;;;;;11.28;93.02;101879.81;5038027;28;20457;-86
2022/07/04 03:56:59;;;;;;;8.43;3.75;;;;;;;11.27;92.99;101881.69;5054794;28;20033;-87
2022/07/04 03:59:25;;;;;;;11.83;4.57;;;;;;;11.30;93.35;101886.75;5070665;28;20443;-87
2022/07/04 04:01:50;;;;;;;8.97;4.50;;;;;;;11.29;93.13;101884.22;5054214;28;20536;-87
2022/07/04 04:06:59;;;;;;;10.90;4.15;;;;;;;11.30;92.53;101883.19;5054444;28;20098;-86
2022/07/04 04:09:25;;;;;;;8.60;4.30;;;;;;;11.31;93.03;101888.44;5054227;28;20037;-86
2022/07/04 04:11:51;;;;;;;16.35;4.35;;;;;;;11.33;92.99;101885.53;5037471;28;20490;-87
2022/07/04 04:14:17;;;;;;;7.47;4.60;;;;;;;11.33;93.30;101886.34;5054136;28;20033;-87
2022/07/04 04:16:42;;;;;;;10.73;4.63;;;;;;;11.37;94.19;101887.66;5053399;28;20033;-87
2022/07/04 04:19:09;;;;;;;8.50;4.10;;;;;;;11.40;93.60;101884.53;5037695;28;20036;-87
2022/07/04 04:21:34;;;;;;;6.07;4.30;;;;;;;11.43;93.60;101885.16;5052869;28;20347;-86
2022/07/04 04:24:01;;;;;;;8.57;4.43;;;;;;;11.47;93.79;101900.06;5053981;28;20120;-86
2022/07/04 04:26:26;;;;;;;9.47;4.97;;;;;;;11.50;93.72;101900.53;5055052;28;20263;-87
2022/07/04 04:28:52;;;;;;;12.02;4.43;;;;;;;11.53;94.08;101900.13;5055035;28;20033;-86
2022/07/04 04:31:17;;;;;;;9.43;4.50;;;;;;;11.56;93.98;101907.06;5021051;28;20028;-87
2022/07/04 04:33:43;;;;;;;12.93;4.83;;;;;;;11.60;94.12;101905.59;5053672;28;20420;-86
2022/07/04 04:36:08;;;;;;;10.27;4.50;;;;;;;11.64;94.15;101911.50;5053494;28;20040;-86
2022/07/04 04:38:33;;;;;;;8.45;4.55;;;;;;;11.68;94.72;101915.53;5053265;28;20032;-87
2022/07/04 04:40:59;;;;;;;13.37;5.53;;;;;;;11.74;94.66;101912.00;5036925;28;20029;-86
2022/07/04 04:43:24;;;;;;;9.67;4.47;;;;;;;11.80;94.81;101918.53;5036942;28;20035;-87
2022/07/04 04:45:50;;;;;;;10.13;4.70;;;;;;;11.82;94.82;101906.41;5069761;28;20033;-87
2022/07/04 04:48:15;;;;;;;9.40;4.43;;;;;;;11.90;94.78;101900.00;5053620;28;20033;-87
2022/07/04 04:50:40;;;;;;;9.43;4.13;;;;;;;11.93;94.53;101900.47;5036706;28;20028;-87
2022/07/04 04:53:06;;;;;;;6.00;4.27;;;;;;;12.02;95.43;101900.31;5036392;28;20036;-87
2022/07/04 04:55:31;;;;;;;7.40;4.70;;;;;;;12.08;95.29;101891.34;5053075;28;20040;-87
2022/07/04 04:57:57;;;;;;;9.57;4.43;;;;;;;12.16;94.55;101895.78;5036176;28;20049;-87
2022/07/04 05:00:22;;;;;;;8.30;4.07;;;;;;;12.23;94.27;101900.22;5036871;28;20048;-87
2022/07/04 05:02:47;;;;;;;9.30;5.17;;;;;;;12.31;94.46;101898.38;5053177;28;20044;-87
2022/07/04 05:05:13;;;;;;;10.80;4.63;;;;;;;12.36;93.69;101896.75;5053133;28;20437;-87
2022/07/04 05:07:39;;;;;;;12.00;4.37;;;;;;;12.42;93.75;101895.94;5036396;28;20112;-86
2022/07/04 05:10:05;;;;;;;10.97;5.20;;;;;;;12.50;94.24;101880.47;5036874;28;20284;-87
2022/07/04 05:12:30;;;;;;;13.07;4.40;;;;;;;12.54;93.90;101885.28;5053358;28;20029;-87
2022/07/04 05:14:56;;;;;;;5.37;4.20;;;;;;;12.64;94.32;101883.03;5036422;28;20053;-84
2022/07/04 05:17:21;;;;;;;7.83;4.60;;;;;;;12.77;94.12;101882.25;5069378;28;20394;-86
2022/07/04 05:19:48;;;;;;;7.67;4.27;;;;;;;12.91;93.08;101882.28;5052692;28;20071;-84
2022/07/04 05:22:14;;;;;;;8.50;4.20;;;;;;;13.05;92.37;101886.72;5052621;28;20328;-83
2022/07/04 05:24:40;;;;;;;7.18;4.00;;;;;;;13.14;92.15;101887.38;5053996;28;20033;-83
2022/07/04 05:27:06;;;;;;;8.45;4.50;;;;;;;13.18;91.70;101894.06;5052678;28;20607;-83
2022/07/04 05:29:32;;;;;;;12.27;4.30;;;;;;;13.27;91.42;101891.97;5069326;28;20029;-84
2022/07/04 05:31:57;;;;;;;10.07;4.40;;;;;;;13.35;90.97;101891.81;5035840;28;20037;-84
2022/07/04 05:34:23;;;;;;;12.93;4.30;;;;;;;13.47;91.09;101892.03;5035547;28;20040;-84
2022/07/04 05:36:48;;;;;;;9.73;4.33;;;;;;;13.56;90.72;101898.13;5019324;28;20052;-84
2022/07/04 05:39:14;;;;;;;10.63;4.37;;;;;;;13.67;89.74;101895.59;5052366;28;20029;-84
2022/07/04 05:41:39;;;;;;;7.55;4.30;;;;;;;13.74;89.77;101900.22;5052450;28;20464;-84
2022/07/04 05:44:05;;;;;;;11.20;4.60;;;;;;;13.81;89.89;101907.31;5051893;28;20055;-84
2022/07/04 05:46:30;;;;;;;10.57;4.80;;;;;;;13.92;89.82;101905.00;5034974;28;20067;-84
2022/07/04 05:48:56;;;;;;;7.70;4.20;;;;;;;13.98;89.08;101909.63;5052016;28;20136;-84
2022/07/04 05:51:21;;;;;;;7.13;4.17;;;;;;;14.06;88.79;101906.69;5069086;28;20025;-83
2022/07/04 05:53:47;;;;;;;8.88;4.43;;;;;;;14.12;89.16;101905.81;5053422;28;20044;-84
2022/07/04 05:56:12;;;;;;;7.47;4.50;;;;;;;14.24;89.04;101905.16;5053297;28;20037;-83
2022/07/04 05:58:38;;;;;;;13.20;4.60;;;;;;;14.33;88.12;101912.06;5051821;28;20463;-84
2022/07/04 06:01:04;;;;;;;8.90;4.40;;;;;;;14.42;88.24;101913.50;5051914;28;20036;-84
2022/07/04 06:03:29;;;;;;;11.13;4.20;;;;;;;14.51;87.93;101920.41;5052277;28;20089;-84
2022/07/04 06:05:55;;;;;;;9.83;4.30;;;;;;;14.54;87.25;101924.59;5051880;28;20064;-84
2022/07/04 06:08:21;;;;;;;7.22;4.13;;;;;;;14.61;87.07;101922.72;5035249;28;20463;-84
2022/07/04 06:10:46;;;;;;;7.10;4.23;;;;;;;14.71;87.42;101928.53;5053251;28;20115;-83
2022/07/04 06:13:12;;;;;;;6.78;3.78;;;;;;;14.79;87.08;101911.06;5052067;28;20564;-83
2022/07/04 06:15:37;;;;;;;7.23;3.97;;;;;;;14.90;86.80;101915.03;5052022;28;20116;-83
2022/07/04 06:18:03;;;;;;;9.13;4.80;;;;;;;15.03;85.70;101919.59;5034928;28;20032;-83
2022/07/04 06:20:29;;;;;;;9.13;3.70;;;;;;;15.18;84.08;101922.00;5034928;28;20061;-83
2022/07/04 06:22:54;;;;;;;6.70;3.78;;;;;;;15.32;83.66;101911.81;5051531;28;20033;-83
2022/07/04 06:25:23;;;;;;;9.03;3.70;;;;;;;15.44;82.73;101916.34;5034626;28;20110;-84
2022/07/04 06:27:51;;;;;;;8.25;3.95;;;;;;;15.46;82.21;101913.41;5051635;28;20033;-83
2022/07/04 06:30:17;;;;;;;8.47;3.63;;;;;;;15.51;81.17;101915.47;5052948;28;20116;-84
2022/07/04 06:32:43;;;;;;;7.25;3.42;;;;;;;15.55;81.24;101920.25;5035364;28;20121;-84
2022/07/04 06:37:53;;;;;;;9.15;3.60;;;;;;;15.58;80.29;101910.78;5053134;28;20110;-83
2022/07/04 06:40:18;;;;;;;8.27;3.43;;;;;;;15.63;79.53;101910.09;5035177;28;20458;-84
2022/07/04 06:42:43;;;;;;;10.00;3.67;;;;;;;15.75;79.58;101911.03;5051751;28;20033;-83
2022/07/04 06:45:09;;;;;;;7.10;3.30;;;;;;;15.90;79.02;101921.66;5069896;28;20037;-84
2022/07/04 06:47:35;;;;;;;10.02;2.90;;;;;;;16.16;77.89;101919.75;5055946;28;20544;-83
2022/07/04 06:50:01;;;;;;;5.65;2.78;;;;;;;16.37;76.41;101913.84;5063522;28;20120;-84
2022/07/04 06:52:26;;;;;;;7.80;2.77;;;;;;;16.52;76.04;101916.19;5057755;28;20473;-85
2022/07/04 06:54:51;;;;;;;7.20;2.50;;;;;;;16.71;73.79;101914.28;5053307;28;20028;-84
2022/07/04 06:57:17;;;;;;;6.07;2.40;;;;;;;16.81;71.65;101924.66;5075699;28;20029;-86
2022/07/04 06:59:42;;;;;;;5.68;2.08;;;;;;;16.78;71.04;101914.16;5053598;28;20048;-84
2022/07/04 07:02:08;;;;;;;4.17;1.97;;;;;;;16.76;70.92;101913.56;5055408;28;20029;-84
2022/07/04 07:04:33;;;;;;;7.33;2.03;;;;;;;16.78;71.78;101905.94;5056382;28;20029;-83
2022/07/04 07:06:58;;;;;;;4.73;1.90;;;;;;;16.85;70.94;101895.72;5038016;28;20025;-84
2022/07/04 07:09:24;;;;;;;4.90;2.37;;;;;;;16.93;71.70;101898.19;5055830;28;20520;-84
2022/07/04 07:11:49;;;;;;;3.72;2.08;;;;;;;17.01;71.93;101899.75;5037959;28;20067;-85
2022/07/04 07:14:15;;;;;;;7.47;2.57;;;;;;;16.98;70.83;101906.53;5054683;28;20033;-84
2022/07/04 07:16:40;;;;;;;6.47;2.33;;;;;;;17.01;70.82;101897.03;5037682;28;20059;-83
2022/07/04 07:19:06;;;;;;;4.30;1.97;;;;;;;17.11;70.38;101902.78;5053961;28;20468;-84
2022/07/04 07:21:31;;;;;;;7.53;3.00;;;;;;;17.22;69.82;101895.66;5054351;28;20123;-84
2022/07/04 07:23:56;;;;;;;6.47;2.60;;;;;;;17.31;69.98;101898.88;5055892;28;20028;-84
2022/07/04 07:26:22;;;;;;;5.87;2.10;;;;;;;17.35;69.50;101902.84;5037395;28;20033;-83
2022/07/04 07:28:47;;;;;;;5.13;2.10;;;;;;;17.32;68.57;101900.56;5055672;28;20025;-84
2022/07/04 07:31:13;;;;;;;4.47;2.30;;;;;;;17.26;67.87;101905.09;5037594;28;20436;-83
2022/07/04 07:33:38;;;;;;;4.43;1.87;;;;;;;17.25;67.24;101919.84;5037733;28;20037;-83
2022/07/04 07:36:04;;;;;;;4.60;1.80;;;;;;;17.26;67.85;101917.94;5054238;28;20025;-84
2022/07/04 07:38:29;;;;;;;4.63;1.90;;;;;;;17.27;67.46;101911.41;5052585;28;20029;-83
2022/07/04 07:40:56;;;;;;;4.00;1.77;;;;;;;17.25;67.10;101919.03;5037969;28;20397;-84
2022/07/04 07:43:21;;;;;;;5.60;1.80;;;;;;;17.30;68.22;101916.41;5054529;28;20104;-84
2022/07/04 07:45:46;;;;;;;3.07;1.43;;;;;;;17.32;67.58;101915.13;5054347;28;20037;-88
2022/07/04 07:48:12;;;;;;;4.93;1.93;;;;;;;17.33;66.27;101911.31;5021339;28;20025;-85
2022/07/04 07:50:37;;;;;;;5.17;1.70;;;;;;;17.32;66.80;101900.56;5037910;28;20029;-83
2022/07/04 07:53:03;;;;;;;3.93;1.80;;;;;;;17.30;66.00;101892.59;5037456;28;20040;-83
2022/07/04 07:55:28;;;;;;;3.17;1.55;;;;;;;17.31;64.33;101898.88;5037723;28;20119;-83
2022/07/04 07:57:53;;;;;;;7.80;1.70;;;;;;;17.32;63.71;101895.91;5053955;28;20025;-84
2022/07/04 08:00:19;;;;;;;3.50;1.30;;;;;;;17.35;63.71;101900.94;5038027;28;20037;-83
2022/07/04 08:05:28;;;;;;;2.70;1.60;;;;;;;17.39;63.52;101892.22;5054413;28;20052;-84
2022/07/04 08:07:54;;;;;;;5.20;1.63;;;;;;;17.43;64.43;101888.78;5053785;28;20025;-83
2022/07/04 08:10:20;;;;;;;8.10;1.63;;;;;;;17.49;63.93;101889.72;5037544;28;20044;-83
2022/07/04 08:12:45;;;;;;;5.93;2.00;;;;;;;17.56;64.89;101903.34;5054341;28;20084;-84
2022/07/04 08:15:11;;;;;;;6.60;1.80;;;;;;;17.57;62.65;101903.13;5053927;28;20033;-84
2022/07/04 08:17:36;;;;;;;5.30;1.60;;;;;;;17.63;63.62;101893.94;5053616;28;20033;-83
2022/07/04 08:20:05;;;;;;;5.57;1.60;;;;;;;17.67;63.62;101899.78;5053627;28;20041;-84
2022/07/04 08:22:30;;;;;;;5.38;1.60;;;;;;;17.76;62.56;101903.00;5053558;28;20060;-83
2022/07/04 08:24:56;;;;;;;5.10;1.67;;;;;;;17.78;62.80;101898.13;5053451;28;20057;-84
2022/07/04 08:27:24;;;;;;;3.50;1.63;;;;;;;17.82;63.08;101910.28;5037494;28;20064;-84
2022/07/04 08:29:49;;;;;;;8.40;1.83;;;;;;;17.84;64.35;101910.91;5054423;28;20531;-84
2022/07/04 08:32:15;;;;;;;5.50;1.73;;;;;;;17.87;63.36;101907.66;5053660;28;20029;-83
2022/07/04 08:34:42;;;;;;;8.20;1.70;;;;;;;17.97;64.33;101912.59;5053596;28;20381;-84
2022/07/04 08:37:08;;;;;;;5.32;1.42;;;;;;;18.04;64.05;101908.66;5053737;28;20540;-84
2022/07/04 08:39:34;;;;;;;5.53;1.53;;;;;;;18.18;63.92;101908.41;5054609;28;20120;-84
2022/07/04 08:42:05;;;;;;;5.63;1.40;;;;;;;18.26;63.26;101916.25;5054695;28;20098;-83
2022/07/04 08:44:30;;;;;;;4.93;1.50;;;;;;;18.39;63.35;101910.53;5053951;28;20115;-84
2022/07/04 08:46:56;;;;;;;2.10;1.30;;;;;;;18.46;62.74;101910.38;5052869;28;20520;-84
2022/07/04 08:49:26;;;;;;;5.70;1.50;;;;;;;18.51;61.77;101920.63;5053162;28;20106;-84
2022/07/04 08:51:58;;;;;;;4.13;1.60;;;;;;;18.54;62.45;101912.75;5053165;28;20108;-84
2022/07/04 08:59:55;;;;;;;4.80;1.60;;;;;;;18.73;61.29;101912.56;5053482;28;20130;-83
2022/07/04 09:02:22;;;;;;;4.73;1.40;;;;;;;18.85;61.58;101927.13;5051941;28;20116;-82
2022/07/04 09:04:49;;;;;;;4.82;1.50;;;;;;;18.92;62.53;101919.56;5032730;28;20143;-85
2022/07/04 09:07:15;;;;;;;3.90;1.40;;;;;;;18.97;60.31;101926.25;5032210;28;20394;-84
2022/07/04 09:09:41;;;;;;;4.87;1.47;;;;;;;19.03;60.63;101919.75;5025057;28;20044;-84
2022/07/04 09:12:08;;;;;;;6.05;1.80;;;;;;;19.01;59.19;101903.50;5052580;28;20033;-84
2022/07/04 09:14:33;;;;;;;5.40;1.50;;;;;;;19.02;59.08;101913.44;5035162;28;20025;-84
2022/07/04 09:16:59;;;;;;;5.07;1.63;;;;;;;19.13;59.41;101919.94;5050606;28;20457;-85
2022/07/04 09:19:25;;;;;;;5.95;1.50;;;;;;;19.21;58.57;101904.97;5035126;28;20037;-85
2022/07/04 09:21:50;;;;;;;3.43;1.20;;;;;;;19.33;58.50;101910.41;5054273;28;20025;-84
2022/07/04 09:24:20;;;;;;;5.17;1.70;;;;;;;19.42;58.10;101906.97;5034702;28;20161;-84
2022/07/04 09:26:46;;;;;;;6.97;1.60;;;;;;;19.61;58.50;101912.25;5052342;28;20051;-84
2022/07/04 09:29:12;;;;;;;7.93;1.20;;;;;;;19.83;57.08;101906.84;5050770;28;20473;-84
2022/07/04 09:31:38;;;;;;;3.75;1.20;;;;;;;19.78;56.31;101907.63;5052165;28;20043;-84
2022/07/04 09:34:08;;;;;;;4.53;1.40;;;;;;;19.76;56.32;101906.97;5052239;28;20061;-84
2022/07/04 09:36:38;;;;;;;7.13;1.47;;;;;;;19.87;56.20;101905.28;5052259;28;20028;-84
2022/07/04 09:39:05;;;;;;;6.20;1.40;;;;;;;20.01;56.21;101910.44;5052185;28;20025;-84
2022/07/04 09:41:35;;;;;;;3.85;1.38;;;;;;;20.32;55.39;101906.16;5052266;28;20025;-84
2022/07/04 09:44:03;;;;;;;7.82;1.45;;;;;;;20.56;54.84;101897.63;5036131;28;20085;-84
2022/07/04 09:46:29;;;;;;;2.63;1.30;;;;;;;20.68;54.17;101901.13;5035419;28;20082;-84
2022/07/04 09:48:54;;;;;;;4.03;1.33;;;;;;;20.72;52.86;101906.97;5047624;28;20029;-85
2022/07/04 09:51:36;;;;;;;4.40;1.50;;;;;;;20.75;53.67;101896.22;5035365;28;20036;-84
2022/07/04 09:54:31;;;;;;;4.50;1.40;;;;;;;20.73;53.84;101903.09;5052023;28;20025;-84
2022/07/04 09:57:02;;;;;;;3.78;1.65;;;;;;;20.89;53.61;101906.84;5052300;28;20047;-85
2022/07/04 09:59:29;;;;;;;9.02;1.85;;;;;;;21.25;52.82;101904.47;5047761;28;20053;-85
2022/07/04 10:02:14;;;;;;;5.45;1.73;;;;;;;21.47;52.96;101905.22;5051770;28;20119;-85
2022/07/04 10:04:47;;;;;;;5.25;1.80;;;;;;;21.26;53.22;101914.41;5050943;28;20033;-85
2022/07/04 10:07:30;;;;;;;4.23;1.67;;;;;;;21.15;53.84;101905.19;5052362;28;20036;-84
2022/07/04 10:09:55;;;;;;;5.22;1.98;;;;;;;21.27;53.53;101902.28;5052578;28;20029;-84
2022/07/04 10:12:28;;;;;;;6.80;1.50;;;;;;;21.45;53.05;101901.91;5049967;28;20116;-84
2022/07/04 10:14:55;;;;;;;5.63;1.65;;;;;;;21.58;52.37;101894.28;5035590;28;20060;-83
2022/07/04 10:17:21;;;;;;;6.45;2.10;;;;;;;21.67;51.53;101900.97;5051630;28;20071;-85
2022/07/04 10:19:47;;;;;;;3.28;1.75;;;;;;;21.65;50.28;101886.59;5032198;28;20034;-82
2022/07/04 10:22:13;;;;;;;4.70;1.50;;;;;;;21.66;51.94;101893.81;5037586;28;20108;-83
2022/07/04 10:24:39;;;;;;;4.03;1.45;;;;;;;21.82;50.29;101891.97;5036074;28;20128;-86
2022/07/04 10:27:04;;;;;;;7.13;1.77;;;;;;;21.95;50.68;101885.97;5036031;28;20072;-84
2022/07/04 10:29:30;;;;;;;5.37;1.90;;;;;;;22.22;49.87;101883.09;5036982;28;20443;-84
2022/07/04 10:31:56;;;;;;;7.45;1.83;;;;;;;22.38;49.44;101884.03;5038840;28;20059;-87
2022/07/04 10:34:22;;;;;;;6.72;1.60;;;;;;;22.57;50.21;101876.06;5036852;28;20049;-87
2022/07/04 10:36:53;;;;;;;6.77;2.00;;;;;;;22.54;48.27;101886.84;5038752;28;20428;-87
2022/07/04 10:39:26;;;;;;;5.90;1.90;;;;;;;22.53;49.10;101872.19;5055574;28;20029;-87
2022/07/04 10:41:59;;;;;;;6.45;1.80;;;;;;;22.50;48.61;101886.56;5056185;28;20138;-87
2022/07/04 10:44:26;;;;;;;5.77;2.10;;;;;;;22.62;48.07;101868.88;5056800;28;20478;-86
2022/07/04 10:46:56;;;;;;;4.78;1.45;;;;;;;22.66;46.92;101861.69;5056263;28;20067;-87
2022/07/04 10:49:24;;;;;;;8.20;1.60;;;;;;;22.83;45.67;101867.84;5055444;28;20021;-86
2022/07/04 10:52:11;;;;;;;6.45;1.90;;;;;;;23.04;45.59;101865.09;5055193;28;20033;-87
2022/07/04 10:54:41;;;;;;;6.90;1.85;;;;;;;23.33;45.33;101865.41;5054715;28;20037;-87
2022/07/04 10:57:14;;;;;;;7.47;1.80;;;;;;;23.53;44.90;101872.06;5056144;28;20461;-87
2022/07/04 10:59:41;;;;;;;4.68;2.00;;;;;;;23.32;45.20;101851.84;5054807;28;20103;-87
2022/07/04 11:02:06;;;;;;;6.45;1.98;;;;;;;23.70;45.84;101861.50;5054469;28;20025;-86
2022/07/04 11:04:47;;;;;;;5.37;1.90;;;;;;;23.95;45.20;101855.09;5054691;28;20041;-86
2022/07/04 11:07:21;;;;;;;5.97;1.83;;;;;;;24.14;43.31;101858.09;5053408;28;20025;-87
2022/07/04 11:10:06;;;;;;;4.22;1.83;;;;;;;24.44;42.16;101861.03;5054400;28;20070;-87
2022/07/04 11:12:31;;;;;;;4.20;1.70;;;;;;;24.23;40.92;101854.75;5054386;28;20090;-87
2022/07/04 11:14:57;;;;;;;5.53;1.93;;;;;;;24.31;42.21;101860.50;5038425;28;20033;-87
2022/07/04 11:17:37;;;;;;;3.77;2.10;;;;;;;24.69;41.28;101835.09;5054544;28;20029;-87
2022/07/04 11:20:07;;;;;;;5.50;1.70;;;;;;;24.81;40.19;101851.41;5054885;28;20120;-87
2022/07/04 11:22:34;;;;;;;5.90;2.30;;;;;;;25.41;40.43;101845.69;5038757;28;20082;-86
2022/07/04 11:24:59;;;;;;;4.40;1.87;;;;;;;25.58;40.16;101853.56;5054835;28;20091;-86
2022/07/04 11:27:25;;;;;;;4.30;2.10;;;;;;;25.56;40.06;101845.53;5054660;28;20032;-87
2022/07/04 11:29:54;;;;;;;3.77;1.80;;;;;;;26.19;39.66;101842.91;5038198;28;20033;-87
2022/07/04 11:32:21;;;;;;;6.63;1.80;;;;;;;26.65;37.25;101845.06;5037800;28;20033;-86
2022/07/04 11:34:48;;;;;;;4.13;1.70;;;;;;;25.94;38.02;101833.75;5054691;28;20112;-87
2022/07/04 11:37:14;;;;;;;6.55;1.60;;;;;;;25.10;38.52;101850.63;5054979;28;20095;-87
2022/07/04 11:39:40;;;;;;;4.47;2.13;;;;;;;26.73;36.77;101854.72;5054346;28;20036;-87